Date,TemperatureHighF,TemperatureAvgF,TemperatureLowF,DewpointHighF,DewpointAvgF,DewpointLowF,HumidityHigh,HumidityAvg,HumidityLow,PressureMaxIn,PressureMinIn,WindSpeedMaxMPH,WindSpeedAvgMPH,GustSpeedMaxMPH,PrecipitationSumIn
2014-1-1,28.5,21.2,11.7,14.9,8.8,3.5,75,59,41,30.65,30.48,12,2,12,0.00
2014-1-2,21.7,16.7,6.3,15.8,10.9,0.5,81,77,74,30.58,30.00,15,6,15,0.00
2014-1-3,14.5,5.7,-4.2,2.5,-4.0,-14.0,78,64,43,30.68,29.91,16,6,16,0.00
2014-1-4,24.5,9.7,-5.3,9.6,-1.6,-14.9,72,60,47,30.77,30.57,12,3,12,0.05
2014-1-5,40.2,26.6,13.9,37.6,20.7,6.8,92,78,64,30.61,30.15,13,2,13,0.20
2014-1-6,54.9,41.8,26.7,53.5,37.7,16.4,96,85,64,30.15,29.65,18,6,18,0.58
2014-1-7,27.1,10.1,3.6,19.6,-4.5,-12.6,82,52,37,30.54,29.82,13,2,13,0.00
2014-1-8,19.7,10.4,0.4,3.5,-2.6,-9.5,67,56,41,30.75,30.53,9,0,9,0.00
2014-1-9,28.3,17.1,9.3,11.7,5.8,0.9,75,61,45,30.92,30.71,9,1,9,0.00
2014-1-10,34.2,27.3,13.0,32.3,23.2,6.3,94,85,71,30.87,30.53,4,0,4,0.08
2014-1-11,55.8,48.5,33.2,54.1,46.8,31.7,98,94,92,30.53,29.63,22,6,22,0.77
2014-1-12,50.4,40.2,28.5,48.2,31.4,22.4,93,71,55,30.31,29.64,13,3,13,0.10
2014-1-13,46.5,36.6,26.0,37.5,29.4,21.3,85,75,57,30.44,30.21,12,3,12,0.00
2014-1-14,45.2,43.4,38.4,42.2,39.4,34.9,90,86,79,30.21,29.94,12,2,12,0.72
2014-1-15,38.4,35.2,31.9,34.8,31.0,28.8,90,85,76,30.23,30.10,17,0,17,0.25
2014-1-16,40.3,36.5,33.7,34.6,32.5,30.2,89,85,78,30.21,30.12,4,0,4,0.01
2014-1-17,41.9,33.3,26.4,31.6,25.8,21.7,86,74,50,30.28,30.19,13,2,13,0.00
2014-1-18,37.0,32.7,28.2,32.0,27.7,20.7,84,82,73,30.20,29.88,7,2,7,0.03
2014-1-19,35.0,28.9,25.7,22.1,19.2,17.8,75,67,56,30.05,29.88,20,5,20,0.00
2014-1-20,42.1,33.3,22.8,26.5,20.7,7.7,73,60,48,30.16,29.82,18,5,18,0.00
2014-1-21,22.7,15.4,8.7,8.9,5.2,-1.1,80,64,42,30.30,30.07,10,3,10,0.00
2014-1-22,16.3,7.8,2.5,1.8,-6.7,-12.3,73,52,34,30.17,29.94,15,4,15,0.00
2014-1-23,20.1,8.0,-0.5,-2.1,-7.1,-11.8,63,50,33,30.47,30.17,9,2,9,0.03
2014-1-24,18.1,8.5,1.7,-1.2,-5.7,-9.8,65,53,35,30.56,30.33,12,2,12,0.00
2014-1-25,33.2,22.4,9.2,20.5,12.9,-1.1,82,67,57,30.33,29.66,26,7,26,0.00
2014-1-26,23.9,17.3,10.8,13.2,4.1,-6.1,80,57,33,30.14,29.67,12,4,12,0.00
2014-1-27,40.6,27.9,16.7,30.7,16.2,-6.9,81,63,32,30.29,29.86,12,5,12,0.03
2014-1-28,19.5,14.0,7.7,-2.5,-6.8,-11.1,47,39,29,30.58,30.29,12,3,12,0.00
2014-1-29,26.2,16.3,10.8,5.2,-0.3,-6.3,73,49,32,30.50,30.28,12,2,12,0.01
2014-1-30,30.2,16.1,4.6,10.4,1.1,-7.0,76,53,33,30.72,30.45,8,2,8,0.01
2014-1-31,40.7,30.2,16.8,21.2,16.2,8.6,81,57,37,30.51,30.33,12,2,12,0.00